createdAt,value
2023-05-16T00:00:47.615Z,7.67
2023-05-16T00:03:14.510Z,8.70
2023-05-16T00:05:41.001Z,8.93
2023-05-16T00:08:07.391Z,8.53
2023-05-16T00:10:33.854Z,8.87
2023-05-16T00:13:01.995Z,9.60
2023-05-16T00:15:30.091Z,9.63
2023-05-16T00:18:00.107Z,9.60
2023-05-16T00:20:28.098Z,9.10
2023-05-16T00:22:55.424Z,8.47
2023-05-16T00:25:21.953Z,8.40
2023-05-16T00:27:48.568Z,8.50
2023-05-16T00:30:15.042Z,7.90
2023-05-16T00:32:41.452Z,8.17
2023-05-16T00:35:10.632Z,8.00
2023-05-16T00:37:38.520Z,6.93
2023-05-16T00:40:05.458Z,7.13
2023-05-16T00:42:32.347Z,7.03
2023-05-16T00:44:58.941Z,6.70
2023-05-16T00:47:25.599Z,6.60
2023-05-16T00:49:52.326Z,5.60
2023-05-16T00:52:18.864Z,5.63
2023-05-16T00:54:45.356Z,5.97
2023-05-16T00:57:11.759Z,6.10
2023-05-16T00:59:38.182Z,4.63
2023-05-16T01:02:05.033Z,5.03
2023-05-16T01:04:32.388Z,5.17
2023-05-16T01:06:59.014Z,6.17
2023-05-16T01:09:25.590Z,5.20
2023-05-16T01:12:01.631Z,5.37
2023-05-16T01:14:45.333Z,4.57
2023-05-16T01:17:29.640Z,4.73
2023-05-16T01:20:05.101Z,4.50
2023-05-16T01:22:51.389Z,4.30
2023-05-16T01:25:46.904Z,4.37
2023-05-16T01:28:15.675Z,4.37
2023-05-16T01:30:42.202Z,4.10
2023-05-16T01:33:09.260Z,4.30
2023-05-16T01:35:47.193Z,3.93
2023-05-16T01:38:24.848Z,3.87
2023-05-16T01:41:08.793Z,2.90
2023-05-16T01:43:45.411Z,3.20
2023-05-16T01:46:18.672Z,3.70
2023-05-16T01:48:53.330Z,3.10
2023-05-16T01:51:22.943Z,2.63
2023-05-16T01:53:50.485Z,2.73
2023-05-16T01:56:17.248Z,2.70
2023-05-16T01:58:47.049Z,2.90
2023-05-16T02:01:13.801Z,3.27
2023-05-16T02:03:40.483Z,2.20
2023-05-16T02:06:07.368Z,2.97
2023-05-16T02:08:34.105Z,2.47
2023-05-16T02:11:00.723Z,3.30
2023-05-16T02:13:27.146Z,2.70
2023-05-16T02:15:53.524Z,3.00
2023-05-16T02:18:20.033Z,3.20
2023-05-16T02:20:46.442Z,3.30
2023-05-16T02:23:12.921Z,3.00
2023-05-16T02:25:39.308Z,3.23
2023-05-16T02:28:06.769Z,3.20
2023-05-16T02:30:33.243Z,3.77
2023-05-16T02:32:59.707Z,4.27
2023-05-16T02:35:26.690Z,4.80
2023-05-16T02:37:53.285Z,4.63
2023-05-16T02:40:19.738Z,5.13
2023-05-16T02:42:46.157Z,5.67
2023-05-16T02:45:12.647Z,6.00
2023-05-16T02:47:39.080Z,5.20
2023-05-16T02:50:06.090Z,6.53
2023-05-16T02:52:32.497Z,5.53
2023-05-16T02:55:09.960Z,6.03
2023-05-16T02:57:45.475Z,6.23
2023-05-16T03:00:12.787Z,6.83
2023-05-16T03:02:39.236Z,6.80
2023-05-16T03:05:06.294Z,6.53
2023-05-16T03:07:33.030Z,7.40
2023-05-16T03:09:59.427Z,7.10
2023-05-16T03:12:26.043Z,6.57
2023-05-16T03:14:52.536Z,6.17
2023-05-16T03:17:19.014Z,6.17
2023-05-16T03:19:45.536Z,6.40
2023-05-16T03:22:11.975Z,6.33
2023-05-16T03:24:38.479Z,7.23
2023-05-16T03:27:05.676Z,8.40
2023-05-16T03:29:32.184Z,9.07
2023-05-16T03:31:58.618Z,8.60
2023-05-16T03:34:25.054Z,8.10
2023-05-16T03:36:52.467Z,8.47
2023-05-16T03:39:18.961Z,8.80
2023-05-16T03:41:45.555Z,8.50
2023-05-16T03:44:11.947Z,8.80
2023-05-16T03:46:38.447Z,9.77
2023-05-16T03:49:04.913Z,10.60
2023-05-16T03:51:31.716Z,9.27
2023-05-16T03:53:58.155Z,8.87
2023-05-16T03:56:24.548Z,8.90
2023-05-16T03:58:50.981Z,8.53
2023-05-16T04:01:17.394Z,8.13
2023-05-16T04:03:43.791Z,8.60
2023-05-16T04:06:10.311Z,7.57
2023-05-16T04:08:36.822Z,6.20
2023-05-16T04:11:03.978Z,5.53
2023-05-16T04:13:31.071Z,6.63
2023-05-16T04:15:57.460Z,5.87
2023-05-16T04:18:24.201Z,5.40
2023-05-16T04:20:50.591Z,5.70
2023-05-16T04:23:17.075Z,5.87
2023-05-16T04:25:43.590Z,5.50
2023-05-16T04:28:10.027Z,4.50
2023-05-16T04:30:37.479Z,4.60
2023-05-16T04:33:04.107Z,4.93
2023-05-16T04:35:31.095Z,4.67
2023-05-16T04:37:57.521Z,4.47
2023-05-16T04:40:25.300Z,4.87
2023-05-16T04:42:53.367Z,4.87
2023-05-16T04:45:19.767Z,3.83
2023-05-16T04:47:46.218Z,4.40
2023-05-16T04:50:12.973Z,4.90
2023-05-16T04:52:39.457Z,3.90
2023-05-16T04:55:06.518Z,4.40
2023-05-16T04:57:32.898Z,4.40
2023-05-16T04:59:59.324Z,3.87
2023-05-16T05:02:25.793Z,3.43
2023-05-16T05:04:52.228Z,3.53
2023-05-16T05:07:18.800Z,3.90
2023-05-16T05:09:45.185Z,4.00
2023-05-16T05:12:11.565Z,3.60
2023-05-16T05:14:37.990Z,2.80
2023-05-16T05:17:04.708Z,3.40
2023-05-16T05:19:31.279Z,3.17
2023-05-16T05:21:57.928Z,2.80
2023-05-16T05:24:24.326Z,3.03
2023-05-16T05:26:50.840Z,3.20
2023-05-16T05:29:17.261Z,3.80
2023-05-16T05:31:43.753Z,3.03
2023-05-16T05:34:10.251Z,2.90
2023-05-16T05:36:36.634Z,3.10
2023-05-16T05:39:03.543Z,3.30
2023-05-16T05:41:30.002Z,3.53
2023-05-16T05:43:56.389Z,4.37
2023-05-16T05:46:25.169Z,4.00
2023-05-16T05:48:52.205Z,4.73
2023-05-16T05:51:19.175Z,5.07
2023-05-16T05:53:45.731Z,4.77
2023-05-16T05:56:12.271Z,6.30
2023-05-16T05:58:41.833Z,6.17
2023-05-16T06:01:08.390Z,7.40
2023-05-16T06:03:35.107Z,7.60
2023-05-16T06:06:01.639Z,8.10
2023-05-16T06:08:28.100Z,7.60
2023-05-16T06:10:54.542Z,8.00
2023-05-16T06:13:21.469Z,7.90
2023-05-16T06:15:54.309Z,8.20
2023-05-16T06:18:21.192Z,8.30
2023-05-16T06:20:47.777Z,10.43
2023-05-16T06:23:14.419Z,8.10
2023-05-16T06:25:40.832Z,7.77
2023-05-16T06:28:07.252Z,7.77
2023-05-16T06:30:34.894Z,6.53
2023-05-16T06:33:01.472Z,6.90
2023-05-16T06:35:28.095Z,6.60
2023-05-16T06:37:54.661Z,6.97
2023-05-16T06:40:21.225Z,6.97
2023-05-16T06:42:47.759Z,6.37
2023-05-16T06:45:14.184Z,5.97
2023-05-16T06:47:41.059Z,6.67
2023-05-16T06:50:08.127Z,5.43
2023-05-16T06:52:34.606Z,6.03
2023-05-16T06:55:01.051Z,5.57
2023-05-16T06:57:27.545Z,5.83
2023-05-16T06:59:53.976Z,5.27
2023-05-16T07:02:20.487Z,6.30
2023-05-16T07:04:47.631Z,5.30
2023-05-16T07:07:14.126Z,4.70
2023-05-16T07:09:40.603Z,4.93
2023-05-16T07:12:07.270Z,6.73
2023-05-16T07:14:33.701Z,5.40
2023-05-16T07:17:00.257Z,5.57
2023-05-16T07:19:26.778Z,4.03
2023-05-16T07:21:54.053Z,5.27
2023-05-16T07:24:20.593Z,4.97
2023-05-16T07:26:47.059Z,4.80
2023-05-16T07:29:13.625Z,4.47
2023-05-16T07:31:40.229Z,4.80
2023-05-16T07:34:06.821Z,4.30
2023-05-16T07:36:34.533Z,4.10
2023-05-16T07:39:01.298Z,4.10
2023-05-16T07:41:29.619Z,3.60
2023-05-16T07:43:56.094Z,4.40
2023-05-16T07:46:22.926Z,3.90
2023-05-16T07:48:50.347Z,3.60
2023-05-16T07:51:16.853Z,4.13
2023-05-16T07:53:43.347Z,3.90
2023-05-16T07:56:10.129Z,3.50
2023-05-16T07:58:36.709Z,4.70
2023-05-16T08:01:06.412Z,5.00
2023-05-16T08:03:33.032Z,5.00
2023-05-16T08:05:59.644Z,4.20
2023-05-16T08:08:26.274Z,4.30
2023-05-16T08:10:52.759Z,4.70
2023-05-16T08:13:19.267Z,3.70
2023-05-16T08:15:46.753Z,3.90
2023-05-16T08:18:15.403Z,4.23
2023-05-16T08:20:42.391Z,4.50
2023-05-16T08:23:09.551Z,3.40
2023-05-16T08:25:36.278Z,3.07
2023-05-16T08:28:02.942Z,3.07
2023-05-16T08:30:29.782Z,3.70
2023-05-16T08:32:56.229Z,2.77
2023-05-16T08:35:22.839Z,2.33
2023-05-16T08:37:49.380Z,2.40
2023-05-16T08:40:16.323Z,2.80
2023-05-16T08:42:44.702Z,1.80
2023-05-16T08:45:12.262Z,2.37
2023-05-16T08:47:41.513Z,2.47
2023-05-16T08:50:09.920Z,2.50
2023-05-16T08:52:40.196Z,2.07
2023-05-16T08:55:11.376Z,2.20
2023-05-16T08:57:39.344Z,2.23
2023-05-16T09:00:12.806Z,2.83
2023-05-16T09:02:41.605Z,2.20
2023-05-16T09:05:11.267Z,2.13
2023-05-16T09:07:37.904Z,1.87
2023-05-16T09:10:06.926Z,1.90
2023-05-16T09:12:34.388Z,1.80
2023-05-16T09:15:06.070Z,2.00
2023-05-16T09:17:44.240Z,2.20
2023-05-16T09:20:16.498Z,2.33
2023-05-16T09:22:57.243Z,2.57
2023-05-16T09:27:57.964Z,1.57
2023-05-16T09:30:30.217Z,1.90
2023-05-16T09:32:56.943Z,1.97
2023-05-16T09:35:42.543Z,2.00
2023-05-16T09:38:20.294Z,1.37
2023-05-16T09:40:47.362Z,1.60
2023-05-16T09:43:18.068Z,2.20
2023-05-16T09:45:49.521Z,1.40
2023-05-16T09:48:17.124Z,2.00
2023-05-16T09:50:54.171Z,1.60
2023-05-16T09:53:28.183Z,1.60
2023-05-16T09:56:01.631Z,1.90
2023-05-16T09:58:32.581Z,1.30
2023-05-16T10:00:59.500Z,1.43
2023-05-16T10:03:27.091Z,2.00
2023-05-16T10:05:55.553Z,2.03
2023-05-16T10:08:23.848Z,1.77
2023-05-16T10:10:55.707Z,2.10
2023-05-16T10:13:29.828Z,1.90
2023-05-16T10:15:58.135Z,2.30
2023-05-16T10:18:35.096Z,2.07
2023-05-16T10:21:14.534Z,1.77
2023-05-16T10:23:48.314Z,1.90
2023-05-16T10:26:16.856Z,1.60
2023-05-16T10:28:44.152Z,2.00
2023-05-16T10:31:11.792Z,1.90
2023-05-16T10:33:39.562Z,1.90
2023-05-16T10:36:08.882Z,1.70
2023-05-16T10:38:37.650Z,1.73
2023-05-16T10:41:05.655Z,2.17
2023-05-16T10:43:33.548Z,2.50
2023-05-16T10:46:04.549Z,1.80
2023-05-16T10:48:39.066Z,2.37
2023-05-16T10:51:23.785Z,2.03
2023-05-16T10:53:54.649Z,2.00
2023-05-16T10:56:27.287Z,1.60
2023-05-16T10:58:54.704Z,2.20
2023-05-16T11:01:27.644Z,1.73
2023-05-16T11:04:00.828Z,1.87
2023-05-16T11:06:35.321Z,1.70
2023-05-16T11:09:24.781Z,2.00
2023-05-16T11:11:57.489Z,1.73
2023-05-16T11:14:29.212Z,1.40
2023-05-16T11:17:20.203Z,1.57
2023-05-16T11:19:59.023Z,2.07
2023-05-16T11:22:28.300Z,1.70
2023-05-16T11:24:57.701Z,1.73
2023-05-16T11:27:33.275Z,1.40
2023-05-16T11:30:03.771Z,2.17
2023-05-16T11:32:33.441Z,2.47
2023-05-16T11:34:59.920Z,1.67
2023-05-16T11:37:26.416Z,1.83
2023-05-16T11:39:52.996Z,1.60
2023-05-16T11:42:19.476Z,1.43
2023-05-16T11:44:46.191Z,1.67
2023-05-16T11:47:12.747Z,1.63
2023-05-16T11:49:41.376Z,1.63
2023-05-16T11:52:09.582Z,1.97
2023-05-16T11:54:36.482Z,1.33
2023-05-16T11:57:03.171Z,2.43
2023-05-16T11:59:29.845Z,1.77
2023-05-16T12:01:56.297Z,1.53
2023-05-16T12:04:23.392Z,1.40
2023-05-16T12:06:59.682Z,1.63
2023-05-16T12:09:26.501Z,1.40
2023-05-16T12:11:53.310Z,1.60
2023-05-16T12:14:20.488Z,2.53
2023-05-16T12:16:48.979Z,1.20
2023-05-16T12:19:16.456Z,1.60
2023-05-16T12:21:43.018Z,1.10
2023-05-16T12:24:11.645Z,1.40
2023-05-16T12:26:40.355Z,1.50
2023-05-16T12:29:06.851Z,1.20
2023-05-16T12:31:37.027Z,1.40
2023-05-16T12:34:03.493Z,1.47
2023-05-16T12:36:34.913Z,1.30
2023-05-16T12:39:03.732Z,1.30
2023-05-16T12:41:31.160Z,1.77
2023-05-16T12:44:16.833Z,1.43
2023-05-16T12:46:45.760Z,1.50
2023-05-16T12:49:13.600Z,1.40
2023-05-16T12:51:40.467Z,1.60
2023-05-16T12:54:10.173Z,1.00
2023-05-16T12:56:41.329Z,1.20
2023-05-16T12:59:08.453Z,1.83
2023-05-16T13:01:36.590Z,1.70
2023-05-16T13:04:04.658Z,1.60
2023-05-16T13:06:44.894Z,1.70
2023-05-16T13:09:15.730Z,1.97
2023-05-16T13:11:42.387Z,1.53
2023-05-16T13:14:08.861Z,1.57
2023-05-16T13:16:35.465Z,1.60
2023-05-16T13:19:02.497Z,1.73
2023-05-16T13:21:31.696Z,2.10
2023-05-16T13:23:59.280Z,1.60
2023-05-16T13:26:26.663Z,2.00
2023-05-16T13:28:55.003Z,2.07
2023-05-16T13:31:24.994Z,1.80
2023-05-16T13:33:52.024Z,1.43
2023-05-16T13:36:18.468Z,1.73
2023-05-16T13:38:44.889Z,2.10
2023-05-16T13:41:11.343Z,1.90
2023-05-16T13:43:37.793Z,1.77
2023-05-16T13:46:04.304Z,1.80
2023-05-16T13:48:30.953Z,1.90
2023-05-16T13:50:57.386Z,2.17
2023-05-16T13:53:24.472Z,2.30
2023-05-16T13:55:50.913Z,1.90
2023-05-16T13:58:17.602Z,2.43
2023-05-16T14:00:45.805Z,2.57
2023-05-16T14:03:13.020Z,3.33
2023-05-16T14:05:39.780Z,2.20
2023-05-16T14:08:06.771Z,2.10
2023-05-16T14:10:33.221Z,1.80
2023-05-16T14:12:59.692Z,1.70
2023-05-16T14:15:26.272Z,1.47
2023-05-16T14:17:53.345Z,1.60
2023-05-16T14:20:19.987Z,1.97
2023-05-16T14:22:46.411Z,1.50
2023-05-16T14:25:12.895Z,2.30
2023-05-16T14:27:39.334Z,2.47
2023-05-16T14:30:06.648Z,1.87
2023-05-16T14:32:33.236Z,2.00
2023-05-16T14:34:59.717Z,1.90
2023-05-16T14:37:26.200Z,2.30
2023-05-16T14:39:52.991Z,2.17
2023-05-16T14:42:19.500Z,3.13
2023-05-16T14:44:46.011Z,2.53
2023-05-16T14:47:12.545Z,2.60
2023-05-16T14:49:39.106Z,1.80
2023-05-16T14:52:06.340Z,2.53
2023-05-16T14:54:32.823Z,1.67
2023-05-16T14:57:00.108Z,1.67
2023-05-16T14:59:27.518Z,2.10
2023-05-16T15:01:54.089Z,2.43
2023-05-16T15:04:20.622Z,1.90
2023-05-16T15:06:47.086Z,1.60
2023-05-16T15:09:13.567Z,1.67
2023-05-16T15:11:40.058Z,2.90
2023-05-16T15:14:06.612Z,1.53
2023-05-16T15:16:33.119Z,1.30
2023-05-16T15:18:59.625Z,1.70
2023-05-16T15:21:26.152Z,2.10
2023-05-16T15:23:52.932Z,1.63
2023-05-16T15:26:19.492Z,1.00
2023-05-16T15:28:45.954Z,1.63
2023-05-16T15:31:12.384Z,1.37
2023-05-16T15:33:39.263Z,1.67
2023-05-16T15:36:06.280Z,1.40
2023-05-16T15:38:32.762Z,1.40
2023-05-16T15:41:13.516Z,1.37
2023-05-16T15:43:45.038Z,1.80
2023-05-16T15:46:11.719Z,3.20
2023-05-16T15:48:42.780Z,1.33
2023-05-16T15:51:09.417Z,1.20
2023-05-16T15:53:36.053Z,1.70
2023-05-16T15:56:02.524Z,1.93
2023-05-16T15:58:29.073Z,1.57
2023-05-16T16:00:56.029Z,1.47
2023-05-16T16:03:22.776Z,1.43
2023-05-16T16:05:50.180Z,1.67
2023-05-16T16:08:17.950Z,1.53
2023-05-16T16:10:44.458Z,1.70
2023-05-16T16:13:10.863Z,1.20
2023-05-16T16:15:38.516Z,2.30
2023-05-16T16:18:06.750Z,1.70
2023-05-16T16:20:33.337Z,1.50
2023-05-16T16:22:59.800Z,2.30
2023-05-16T16:25:26.559Z,1.50
2023-05-16T16:27:53.154Z,3.60
2023-05-16T16:30:19.587Z,2.50
2023-05-16T16:32:48.525Z,1.90
2023-05-16T16:35:15.122Z,2.13
2023-05-16T16:37:43.000Z,2.03
2023-05-16T16:40:15.720Z,1.83
2023-05-16T16:42:42.222Z,1.80
2023-05-16T16:45:09.289Z,1.80
2023-05-16T16:47:36.267Z,1.90
2023-05-16T16:50:02.907Z,1.77
2023-05-16T16:52:29.338Z,1.70
2023-05-16T16:54:55.898Z,2.03
2023-05-16T16:57:22.382Z,2.07
2023-05-16T16:59:49.144Z,1.70
2023-05-16T17:02:15.795Z,1.53
2023-05-16T17:04:42.301Z,1.60
2023-05-16T17:07:08.847Z,1.80
2023-05-16T17:09:36.673Z,1.80
2023-05-16T17:12:07.932Z,2.10
2023-05-16T17:14:34.903Z,1.73
2023-05-16T17:17:01.412Z,1.30
2023-05-16T17:19:28.082Z,1.80
2023-05-16T17:21:54.642Z,1.43
2023-05-16T17:24:21.680Z,1.90
2023-05-16T17:26:48.752Z,1.87
2023-05-16T17:29:15.655Z,1.97
2023-05-16T17:31:42.093Z,2.10
2023-05-16T17:34:08.593Z,1.60
2023-05-16T17:36:36.382Z,2.10
2023-05-16T17:39:07.751Z,2.10
2023-05-16T17:41:34.943Z,2.50
2023-05-16T17:44:01.360Z,4.87
2023-05-16T17:46:27.858Z,2.63
2023-05-16T17:48:54.500Z,1.73
2023-05-16T17:51:21.034Z,2.50
2023-05-16T17:53:47.491Z,2.10
2023-05-16T17:56:14.049Z,1.90
2023-05-16T17:58:40.547Z,1.90
2023-05-16T18:01:09.231Z,2.23
2023-05-16T18:03:36.230Z,1.93
2023-05-16T18:06:03.207Z,2.20
2023-05-16T18:08:29.702Z,2.20
2023-05-16T18:10:56.624Z,2.03
2023-05-16T18:13:23.803Z,1.93
2023-05-16T18:15:50.693Z,2.57
2023-05-16T18:18:17.785Z,2.07
2023-05-16T18:20:45.948Z,7.40
2023-05-16T18:23:12.475Z,5.67
2023-05-16T18:25:38.879Z,2.67
2023-05-16T18:28:05.568Z,2.10
2023-05-16T18:30:32.075Z,2.07
2023-05-16T18:32:59.459Z,1.90
2023-05-16T18:35:28.270Z,1.73
2023-05-16T18:37:55.025Z,1.67
2023-05-16T18:40:22.455Z,2.00
2023-05-16T18:42:48.889Z,2.40
2023-05-16T18:45:15.340Z,2.17
2023-05-16T18:47:42.104Z,2.07
2023-05-16T18:50:09.020Z,2.80
2023-05-16T18:52:37.005Z,2.30
2023-05-16T18:55:03.630Z,2.30
2023-05-16T18:57:30.090Z,2.77
2023-05-16T18:59:56.598Z,2.33
2023-05-16T19:02:34.026Z,2.07
2023-05-16T19:05:08.677Z,2.40
2023-05-16T19:07:35.342Z,1.93
2023-05-16T19:10:03.858Z,2.83
2023-05-16T19:12:30.563Z,2.30
2023-05-16T19:14:57.694Z,1.77
2023-05-16T19:17:24.200Z,2.40
2023-05-16T19:19:50.758Z,2.27
2023-05-16T19:22:17.410Z,2.00
2023-05-16T19:24:43.862Z,1.87
2023-05-16T19:27:11.108Z,1.77
2023-05-16T19:29:37.824Z,1.90
2023-05-16T19:32:04.585Z,2.07
2023-05-16T19:34:31.199Z,2.27
2023-05-16T19:36:57.753Z,2.60
2023-05-16T19:39:24.305Z,2.30
2023-05-16T19:41:57.031Z,2.40
2023-05-16T19:44:23.844Z,2.40
2023-05-16T19:46:50.364Z,1.90
2023-05-16T19:49:18.908Z,2.10
2023-05-16T19:51:46.915Z,2.57
2023-05-16T19:54:13.484Z,2.00
2023-05-16T19:56:40.057Z,2.20
2023-05-16T19:59:06.521Z,2.07
2023-05-16T20:01:32.994Z,1.93
2023-05-16T20:04:00.615Z,2.33
2023-05-16T20:06:27.149Z,2.57
2023-05-16T20:08:53.592Z,2.30
2023-05-16T20:11:20.124Z,2.47
2023-05-16T20:13:46.561Z,2.20
2023-05-16T20:16:13.332Z,2.30
2023-05-16T20:18:39.905Z,2.50
2023-05-16T20:21:06.534Z,2.50
2023-05-16T20:23:33.010Z,2.10
2023-05-16T20:25:59.445Z,2.70
2023-05-16T20:28:26.024Z,3.60
2023-05-16T20:30:52.518Z,3.20
2023-05-16T20:33:19.056Z,2.90
2023-05-16T20:35:45.928Z,2.40
2023-05-16T20:38:12.436Z,2.63
2023-05-16T20:40:39.726Z,2.83
2023-05-16T20:43:06.228Z,2.47
2023-05-16T20:45:32.693Z,2.30
2023-05-16T20:47:59.150Z,2.60
2023-05-16T20:50:25.715Z,2.83
2023-05-16T20:52:52.146Z,2.90
2023-05-16T20:55:18.607Z,2.83
2023-05-16T20:57:45.097Z,2.80
2023-05-16T21:00:12.212Z,2.83
2023-05-16T21:02:39.052Z,3.20
2023-05-16T21:05:23.248Z,2.30
2023-05-16T21:07:51.271Z,2.57
2023-05-16T21:10:17.776Z,2.13
2023-05-16T21:12:44.212Z,2.80
2023-05-16T21:15:11.050Z,2.70
2023-05-16T21:17:39.420Z,2.67
2023-05-16T21:20:06.811Z,2.20
2023-05-16T21:22:33.264Z,2.37
2023-05-16T21:24:59.727Z,2.83
2023-05-16T21:27:26.198Z,2.37
2023-05-16T21:29:52.633Z,2.73
2023-05-16T21:32:19.082Z,2.50
2023-05-16T21:34:45.700Z,2.03
2023-05-16T21:37:12.201Z,2.60
2023-05-16T21:39:38.669Z,2.83
2023-05-16T21:42:05.250Z,2.40
2023-05-16T21:44:31.754Z,2.63
2023-05-16T21:46:58.212Z,2.67
2023-05-16T21:49:24.746Z,2.80
2023-05-16T21:51:51.203Z,2.50
2023-05-16T21:54:17.698Z,2.00
2023-05-16T21:56:44.130Z,2.40
2023-05-16T21:59:10.526Z,2.27
2023-05-16T22:01:36.992Z,1.97
2023-05-16T22:04:03.550Z,1.97
2023-05-16T22:06:31.177Z,3.33
2023-05-16T22:08:57.912Z,2.10
2023-05-16T22:11:24.480Z,2.00
2023-05-16T22:13:51.364Z,2.83
2023-05-16T22:16:17.923Z,2.00
2023-05-16T22:18:45.290Z,2.00
2023-05-16T22:21:12.094Z,2.00
2023-05-16T22:23:38.528Z,3.00
2023-05-16T22:26:05.284Z,2.37
2023-05-16T22:28:31.740Z,2.57
2023-05-16T22:30:58.255Z,1.83
2023-05-16T22:33:25.525Z,2.83
2023-05-16T22:35:52.236Z,2.00
2023-05-16T22:38:18.708Z,1.93
2023-05-16T22:40:46.246Z,2.40
2023-05-16T22:43:12.862Z,2.40
2023-05-16T22:45:39.275Z,1.93
2023-05-16T22:48:06.271Z,2.20
2023-05-16T22:50:32.839Z,1.77
2023-05-16T22:52:59.282Z,2.40
2023-05-16T22:55:26.457Z,2.50
2023-05-16T22:57:56.971Z,2.33
2023-05-16T23:00:23.588Z,2.47
2023-05-16T23:02:50.201Z,2.73
2023-05-16T23:05:16.900Z,2.20
2023-05-16T23:07:43.381Z,1.70
2023-05-16T23:10:10.011Z,2.50
2023-05-16T23:12:36.457Z,2.17
2023-05-16T23:15:03.257Z,2.00
2023-05-16T23:17:29.863Z,1.90
2023-05-16T23:19:56.484Z,1.77
2023-05-16T23:22:22.992Z,2.70
2023-05-16T23:24:49.431Z,1.90
2023-05-16T23:27:15.875Z,2.37
2023-05-16T23:29:42.496Z,2.40
2023-05-16T23:32:08.895Z,2.47
2023-05-16T23:34:35.408Z,2.40
2023-05-16T23:37:01.820Z,2.40
2023-05-16T23:39:28.333Z,2.43
2023-05-16T23:41:54.836Z,1.73
2023-05-16T23:44:21.311Z,1.87
2023-05-16T23:46:47.778Z,2.07
2023-05-16T23:49:14.217Z,2.33
2023-05-16T23:51:56.214Z,2.23
2023-05-16T23:54:24.242Z,2.20
2023-05-16T23:56:51.033Z,1.57
2023-05-16T23:59:18.914Z,2.40
